createdAt,value
2022-09-04T00:00:45.404Z,977.38
2022-09-04T00:01:45.603Z,977.36
2022-09-04T00:02:45.255Z,977.41
2022-09-04T00:04:06.245Z,977.44
2022-09-04T00:04:45.143Z,977.44
2022-09-04T00:05:45.021Z,977.43
2022-09-04T00:06:44.944Z,977.46
2022-09-04T00:07:44.879Z,977.46
2022-09-04T00:08:44.776Z,977.47
2022-09-04T00:10:05.687Z,977.45
2022-09-04T00:10:44.635Z,977.50
2022-09-04T00:11:44.557Z,977.53
2022-09-04T00:12:44.471Z,977.51
2022-09-04T00:13:44.395Z,977.50
2022-09-04T00:14:44.320Z,977.51
2022-09-04T00:16:05.238Z,977.54
2022-09-04T00:16:44.177Z,977.54
2022-09-04T00:17:44.089Z,977.54
2022-09-04T00:18:44.022Z,977.55
2022-09-04T00:19:43.931Z,977.55
2022-09-04T00:20:43.858Z,977.54
2022-09-04T00:22:04.765Z,977.55
2022-09-04T00:22:43.694Z,977.56
2022-09-04T00:23:43.619Z,977.57
2022-09-04T00:24:43.544Z,977.60
2022-09-04T00:25:43.478Z,977.60
2022-09-04T00:26:43.383Z,977.59
2022-09-04T00:28:04.289Z,977.60
2022-09-04T00:28:43.229Z,977.59
2022-09-04T00:29:43.157Z,977.58
2022-09-04T00:30:43.120Z,977.58
2022-09-04T00:31:43.011Z,977.58
2022-09-04T00:32:42.910Z,977.59
2022-09-04T00:34:03.818Z,977.60
2022-09-04T00:34:42.767Z,977.60
2022-09-04T00:35:42.704Z,977.59
2022-09-04T00:36:45.809Z,977.62
2022-09-04T00:37:42.540Z,977.60
2022-09-04T00:38:42.458Z,977.58
2022-09-04T00:40:03.474Z,977.55
2022-09-04T00:40:42.302Z,977.56
2022-09-04T00:41:42.225Z,977.60
2022-09-04T00:42:42.134Z,977.59
2022-09-04T00:43:42.072Z,977.58
2022-09-04T00:44:41.976Z,977.59
2022-09-04T00:46:02.922Z,977.59
2022-09-04T00:46:41.829Z,977.60
2022-09-04T00:47:41.762Z,977.60
2022-09-04T00:48:41.676Z,977.62
2022-09-04T00:49:41.604Z,977.60
2022-09-04T00:50:41.522Z,977.62
2022-09-04T00:52:02.417Z,977.65
2022-09-04T00:52:41.358Z,977.67
2022-09-04T00:53:41.294Z,977.64
2022-09-04T00:54:41.211Z,977.63
2022-09-04T00:55:41.129Z,977.68
2022-09-04T00:56:41.041Z,977.65
2022-09-04T00:58:01.951Z,977.65
2022-09-04T00:58:40.891Z,977.63
2022-09-04T00:59:40.834Z,977.63
2022-09-04T01:00:40.783Z,977.64
2022-09-04T01:01:40.783Z,977.71
2022-09-04T01:02:40.583Z,977.68
2022-09-04T01:04:01.486Z,977.70
2022-09-04T01:04:40.419Z,977.74
2022-09-04T01:05:40.359Z,977.72
2022-09-04T01:06:40.272Z,977.75
2022-09-04T01:07:40.198Z,977.69
2022-09-04T01:08:40.105Z,977.69
2022-09-04T01:10:01.037Z,977.72
2022-09-04T01:10:39.976Z,977.72
2022-09-04T01:11:39.887Z,977.72
2022-09-04T01:12:39.801Z,977.75
2022-09-04T01:13:39.733Z,977.76
2022-09-04T01:14:39.651Z,977.80
2022-09-04T01:16:00.669Z,977.78
2022-09-04T01:16:39.525Z,977.84
2022-09-04T01:17:39.412Z,977.83
2022-09-04T01:18:39.344Z,977.85
2022-09-04T01:19:39.251Z,977.85
2022-09-04T01:20:39.183Z,977.82
2022-09-04T01:22:00.091Z,977.84
2022-09-04T01:22:39.026Z,977.86
2022-09-04T01:23:38.940Z,977.88
2022-09-04T01:24:38.875Z,977.89
2022-09-04T01:25:38.794Z,977.90
2022-09-04T01:26:38.704Z,977.86
2022-09-04T01:27:59.617Z,977.89
2022-09-04T01:28:38.561Z,977.89
2022-09-04T01:29:38.478Z,977.89
2022-09-04T01:30:38.398Z,977.92
2022-09-04T01:31:38.406Z,977.95
2022-09-04T01:32:38.232Z,977.99
2022-09-04T01:33:59.149Z,977.99
2022-09-04T01:34:38.081Z,978.00
2022-09-04T01:35:38.003Z,978.03
2022-09-04T01:36:37.931Z,978.01
2022-09-04T01:37:37.871Z,978.00
2022-09-04T01:38:37.778Z,977.96
2022-09-04T01:39:58.715Z,977.96
2022-09-04T01:40:37.614Z,977.99
2022-09-04T01:41:38.607Z,977.95
2022-09-04T01:42:37.462Z,977.98
2022-09-04T01:43:37.381Z,977.97
2022-09-04T01:44:37.303Z,977.99
2022-09-04T01:45:58.263Z,978.00
2022-09-04T01:46:37.142Z,977.99
2022-09-04T01:47:37.070Z,977.99
2022-09-04T01:48:36.996Z,978.00
2022-09-04T01:49:36.931Z,977.99
2022-09-04T01:50:36.847Z,977.96
2022-09-04T01:51:57.751Z,977.97
2022-09-04T01:52:36.794Z,977.96
2022-09-04T01:53:36.602Z,978.00
2022-09-04T01:54:36.527Z,978.05
2022-09-04T01:55:36.452Z,978.03
2022-09-04T01:56:36.358Z,978.05
2022-09-04T01:57:57.279Z,978.10
2022-09-04T01:58:36.216Z,978.08
2022-09-04T01:59:36.139Z,978.09
2022-09-04T02:00:36.048Z,978.06
2022-09-04T02:01:36.052Z,978.10
2022-09-04T02:02:35.975Z,978.07
2022-09-04T02:03:56.806Z,978.09
2022-09-04T02:04:35.736Z,978.09
2022-09-04T02:05:35.673Z,978.09
2022-09-04T02:06:35.608Z,978.10
2022-09-04T02:07:35.505Z,978.08
2022-09-04T02:08:35.436Z,978.08
2022-09-04T02:09:56.340Z,978.11
2022-09-04T02:10:35.276Z,978.15
2022-09-04T02:11:35.190Z,978.16
2022-09-04T02:12:35.124Z,978.14
2022-09-04T02:13:35.042Z,978.18
2022-09-04T02:14:34.954Z,978.14
2022-09-04T02:15:55.898Z,978.16
2022-09-04T02:16:34.908Z,978.11
2022-09-04T02:17:34.721Z,978.16
2022-09-04T02:18:34.644Z,978.14
2022-09-04T02:19:34.576Z,978.14
2022-09-04T02:20:34.487Z,978.16
2022-09-04T02:21:55.393Z,978.15
2022-09-04T02:22:34.330Z,978.13
2022-09-04T02:23:34.252Z,978.18
2022-09-04T02:24:34.171Z,978.14
2022-09-04T02:25:34.115Z,978.17
2022-09-04T02:26:34.015Z,978.14
2022-09-04T02:27:54.927Z,978.11
2022-09-04T02:28:33.856Z,978.11
2022-09-04T02:29:33.797Z,978.09
2022-09-04T02:30:33.721Z,978.10
2022-09-04T02:31:33.663Z,978.08
2022-09-04T02:32:33.552Z,978.07
2022-09-04T02:33:54.448Z,978.04
2022-09-04T02:34:33.393Z,978.04
2022-09-04T02:35:33.312Z,978.05
2022-09-04T02:36:33.227Z,977.99
2022-09-04T02:37:33.153Z,978.02
2022-09-04T02:38:33.088Z,978.01
2022-09-04T02:39:53.998Z,978.00
2022-09-04T02:40:32.925Z,978.01
2022-09-04T02:41:32.847Z,978.01
2022-09-04T02:42:32.758Z,978.00
2022-09-04T02:43:32.684Z,978.03
2022-09-04T02:44:32.606Z,978.05
2022-09-04T02:45:53.521Z,978.05
2022-09-04T02:46:32.541Z,978.04
2022-09-04T02:47:32.373Z,978.05
2022-09-04T02:48:32.299Z,978.01
2022-09-04T02:49:32.215Z,978.03
2022-09-04T02:50:32.130Z,978.06
2022-09-04T02:51:53.037Z,978.06
2022-09-04T02:52:32.002Z,978.03
2022-09-04T02:53:31.908Z,978.08
2022-09-04T02:54:31.814Z,978.09
2022-09-04T02:55:31.758Z,978.08
2022-09-04T02:56:31.667Z,978.11
2022-09-04T02:57:52.568Z,978.11
2022-09-04T02:58:31.519Z,978.09
2022-09-04T02:59:31.427Z,978.09
2022-09-04T03:00:31.392Z,978.10
2022-09-04T03:01:31.286Z,978.14
2022-09-04T03:02:31.247Z,978.07
2022-09-04T03:03:52.121Z,978.06
2022-09-04T03:04:31.040Z,978.10
2022-09-04T03:05:30.964Z,978.07
2022-09-04T03:06:30.882Z,978.11
2022-09-04T03:07:30.809Z,978.10
2022-09-04T03:08:30.724Z,978.10
2022-09-04T03:09:51.628Z,978.13
2022-09-04T03:10:30.566Z,978.12
2022-09-04T03:11:30.500Z,978.12
2022-09-04T03:12:30.410Z,978.13
2022-09-04T03:13:30.343Z,978.11
2022-09-04T03:14:30.261Z,978.12
2022-09-04T03:15:51.217Z,978.11
2022-09-04T03:16:30.158Z,978.12
2022-09-04T03:17:30.041Z,978.12
2022-09-04T03:18:29.941Z,978.13
2022-09-04T03:19:29.859Z,978.09
2022-09-04T03:20:29.788Z,978.11
2022-09-04T03:21:50.707Z,978.15
2022-09-04T03:22:29.628Z,978.15
2022-09-04T03:23:29.542Z,978.14
2022-09-04T03:24:29.470Z,978.15
2022-09-04T03:25:29.393Z,978.17
2022-09-04T03:26:29.312Z,978.15
2022-09-04T03:27:50.237Z,978.19
2022-09-04T03:28:29.151Z,978.19
2022-09-04T03:29:29.072Z,978.18
2022-09-04T03:30:29.005Z,978.17
2022-09-04T03:31:28.969Z,978.12
2022-09-04T03:32:28.839Z,978.09
2022-09-04T03:33:49.746Z,978.10
2022-09-04T03:34:28.687Z,978.12
2022-09-04T03:35:28.605Z,978.09
2022-09-04T03:36:28.529Z,978.11
2022-09-04T03:37:28.457Z,978.14
2022-09-04T03:38:28.381Z,978.13
2022-09-04T03:39:49.355Z,978.17
2022-09-04T03:40:28.218Z,978.21
2022-09-04T03:41:28.129Z,978.21
2022-09-04T03:42:28.065Z,978.18
2022-09-04T03:43:27.970Z,978.22
2022-09-04T03:44:27.913Z,978.20
2022-09-04T03:45:48.804Z,978.21
2022-09-04T03:46:27.825Z,978.23
2022-09-04T03:47:27.676Z,978.22
2022-09-04T03:48:27.655Z,978.23
2022-09-04T03:49:27.508Z,978.24
2022-09-04T03:50:27.435Z,978.26
2022-09-04T03:51:48.334Z,978.27
2022-09-04T03:52:27.284Z,978.26
2022-09-04T03:53:27.199Z,978.29
2022-09-04T03:54:27.121Z,978.29
2022-09-04T03:55:27.045Z,978.32
2022-09-04T03:56:26.967Z,978.33
2022-09-04T03:57:47.861Z,978.31
2022-09-04T03:58:26.801Z,978.33
2022-09-04T03:59:26.718Z,978.38
2022-09-04T04:00:26.771Z,978.39
2022-09-04T04:01:26.573Z,978.38
2022-09-04T04:02:26.573Z,978.40
2022-09-04T04:03:47.400Z,978.39
2022-09-04T04:04:26.339Z,978.40
2022-09-04T04:05:26.256Z,978.46
2022-09-04T04:06:26.191Z,978.46
2022-09-04T04:07:26.107Z,978.47
2022-09-04T04:08:26.104Z,978.51
2022-09-04T04:09:46.928Z,978.52
2022-09-04T04:10:25.861Z,978.51
2022-09-04T04:11:25.786Z,978.50
2022-09-04T04:12:25.702Z,978.52
2022-09-04T04:13:25.626Z,978.52
2022-09-04T04:14:25.556Z,978.54
2022-09-04T04:15:46.514Z,978.52
2022-09-04T04:16:25.559Z,978.57
2022-09-04T04:17:25.328Z,978.52
2022-09-04T04:18:25.323Z,978.52
2022-09-04T04:19:25.150Z,978.53
2022-09-04T04:20:25.084Z,978.56
2022-09-04T04:21:45.992Z,978.52
2022-09-04T04:22:24.926Z,978.51
2022-09-04T04:23:24.844Z,978.53
2022-09-04T04:24:24.774Z,978.54
2022-09-04T04:25:24.689Z,978.51
2022-09-04T04:26:24.609Z,978.50
2022-09-04T04:27:45.507Z,978.55
2022-09-04T04:28:24.543Z,978.54
2022-09-04T04:29:24.377Z,978.55
2022-09-04T04:30:24.294Z,978.59
2022-09-04T04:31:24.265Z,978.58
2022-09-04T04:32:24.137Z,978.60
2022-09-04T04:33:45.044Z,978.63
2022-09-04T04:34:23.986Z,978.61
2022-09-04T04:35:23.898Z,978.64
2022-09-04T04:36:23.824Z,978.64
2022-09-04T04:37:23.738Z,978.65
2022-09-04T04:38:23.671Z,978.66
2022-09-04T04:39:44.667Z,978.65
2022-09-04T04:40:23.524Z,978.66
2022-09-04T04:41:23.427Z,978.67
2022-09-04T04:42:23.372Z,978.67
2022-09-04T04:43:23.273Z,978.71
2022-09-04T04:44:23.209Z,978.74
2022-09-04T04:45:44.092Z,978.75
2022-09-04T04:46:23.090Z,978.75
2022-09-04T04:47:22.954Z,978.75
2022-09-04T04:48:22.902Z,978.77
2022-09-04T04:49:22.806Z,978.79
2022-09-04T04:50:22.741Z,978.76
2022-09-04T04:51:43.624Z,978.81
2022-09-04T04:52:22.568Z,978.81
2022-09-04T04:53:22.495Z,978.80
2022-09-04T04:54:22.420Z,978.85
2022-09-04T04:55:22.339Z,978.86
2022-09-04T04:56:22.257Z,978.86
2022-09-04T04:57:43.177Z,978.85
2022-09-04T04:58:22.160Z,978.91
2022-09-04T04:59:22.032Z,978.89
2022-09-04T05:00:26.743Z,978.90
2022-09-04T05:01:21.939Z,978.92
2022-09-04T05:02:21.879Z,978.89
2022-09-04T05:03:42.705Z,978.93
2022-09-04T05:04:21.627Z,979.01
2022-09-04T05:05:21.545Z,979.00
2022-09-04T05:06:21.487Z,979.00
2022-09-04T05:07:21.396Z,979.00
2022-09-04T05:08:21.335Z,979.03
2022-09-04T05:09:42.219Z,979.02
2022-09-04T05:10:21.167Z,978.99
2022-09-04T05:11:21.085Z,979.01
2022-09-04T05:12:21.015Z,978.98
2022-09-04T05:13:20.921Z,979.02
2022-09-04T05:14:20.859Z,979.03
2022-09-04T05:15:58.433Z,979.03
2022-09-04T05:16:20.779Z,979.05
2022-09-04T05:17:20.601Z,979.08
2022-09-04T05:18:20.548Z,979.09
2022-09-04T05:19:20.465Z,979.11
2022-09-04T05:20:20.380Z,979.14
2022-09-04T05:21:41.282Z,979.18
2022-09-04T05:22:20.216Z,979.16
2022-09-04T05:23:20.142Z,979.16
2022-09-04T05:24:20.071Z,979.18
2022-09-04T05:25:19.988Z,979.18
2022-09-04T05:26:19.904Z,979.21
2022-09-04T05:27:40.818Z,979.22
2022-09-04T05:28:19.785Z,979.22
2022-09-04T05:29:19.666Z,979.26
2022-09-04T05:30:19.588Z,979.25
2022-09-04T05:31:19.548Z,979.28
2022-09-04T05:32:19.441Z,979.26
2022-09-04T05:33:40.341Z,979.27
2022-09-04T05:34:19.281Z,979.28
2022-09-04T05:35:19.203Z,979.30
2022-09-04T05:36:19.136Z,979.31
2022-09-04T05:37:19.047Z,979.35
2022-09-04T05:38:19.039Z,979.36
2022-09-04T05:39:39.951Z,979.41
2022-09-04T05:40:18.811Z,979.40
2022-09-04T05:41:18.739Z,979.44
2022-09-04T05:42:18.667Z,979.45
2022-09-04T05:43:18.568Z,979.48
2022-09-04T05:44:18.494Z,979.48
2022-09-04T05:45:39.414Z,979.50
2022-09-04T05:46:18.393Z,979.49
2022-09-04T05:47:18.269Z,979.49
2022-09-04T05:48:18.229Z,979.55
2022-09-04T05:49:18.111Z,979.57
2022-09-04T05:50:18.029Z,979.57
2022-09-04T05:51:38.936Z,979.58
2022-09-04T05:52:17.873Z,979.63
2022-09-04T05:53:17.782Z,979.63
2022-09-04T05:54:17.726Z,979.62
2022-09-04T05:55:17.635Z,979.64
2022-09-04T05:56:17.565Z,979.65
2022-09-04T05:57:38.453Z,979.64
2022-09-04T05:58:17.415Z,979.65
2022-09-04T05:59:17.326Z,979.68
2022-09-04T06:00:17.241Z,979.64
2022-09-04T06:01:17.159Z,979.68
2022-09-04T06:02:17.154Z,979.67
2022-09-04T06:03:37.999Z,979.69
2022-09-04T06:04:16.935Z,979.71
2022-09-04T06:05:16.847Z,979.72
2022-09-04T06:06:16.771Z,979.71
2022-09-04T06:07:16.692Z,979.75
2022-09-04T06:08:16.612Z,979.78
2022-09-04T06:09:37.521Z,979.78
2022-09-04T06:10:16.480Z,979.81
2022-09-04T06:11:16.384Z,979.78
2022-09-04T06:12:19.452Z,979.76
2022-09-04T06:13:16.227Z,979.80
2022-09-04T06:14:16.151Z,979.79
2022-09-04T06:15:37.115Z,979.80
2022-09-04T06:16:16.028Z,979.81
2022-09-04T06:17:15.907Z,979.81
2022-09-04T06:18:15.835Z,979.80
2022-09-04T06:19:15.761Z,979.84
2022-09-04T06:20:15.691Z,979.85
2022-09-04T06:21:36.588Z,979.90
2022-09-04T06:22:15.519Z,979.87
2022-09-04T06:23:15.435Z,979.92
2022-09-04T06:24:15.366Z,979.93
2022-09-04T06:25:15.282Z,979.92
2022-09-04T06:26:15.208Z,979.93
2022-09-04T06:27:36.106Z,979.94
2022-09-04T06:28:15.050Z,979.95
2022-09-04T06:29:14.976Z,979.94
2022-09-04T06:30:14.907Z,979.95
2022-09-04T06:31:14.846Z,979.95
2022-09-04T06:32:14.749Z,979.97
2022-09-04T06:33:35.637Z,980.01
2022-09-04T06:34:17.187Z,980.00
2022-09-04T06:35:14.501Z,980.00
2022-09-04T06:36:14.437Z,980.01
2022-09-04T06:37:14.411Z,980.01
2022-09-04T06:38:14.363Z,980.03
2022-09-04T06:39:35.272Z,980.02
2022-09-04T06:40:14.168Z,980.01
2022-09-04T06:41:14.065Z,980.00
2022-09-04T06:42:14.053Z,980.02
2022-09-04T06:43:13.885Z,980.03
2022-09-04T06:44:13.891Z,980.05
2022-09-04T06:45:34.712Z,980.02
2022-09-04T06:46:13.694Z,979.99
2022-09-04T06:47:13.564Z,980.04
2022-09-04T06:48:13.509Z,980.01
2022-09-04T06:49:13.421Z,980.01
2022-09-04T06:50:13.346Z,980.00
2022-09-04T06:51:34.302Z,980.06
2022-09-04T06:52:13.190Z,980.03
2022-09-04T06:53:13.113Z,980.04
2022-09-04T06:54:13.036Z,980.04
2022-09-04T06:55:12.951Z,980.07
2022-09-04T06:56:12.870Z,980.07
2022-09-04T06:57:33.784Z,980.06
2022-09-04T06:58:12.721Z,980.08
2022-09-04T06:59:12.640Z,980.09
2022-09-04T07:00:12.560Z,980.11
2022-09-04T07:01:12.519Z,980.13
2022-09-04T07:02:12.584Z,980.15
2022-09-04T07:03:33.317Z,980.15
2022-09-04T07:04:12.248Z,980.18
2022-09-04T07:05:12.168Z,980.16
2022-09-04T07:06:12.114Z,980.20
2022-09-04T07:07:12.029Z,980.26
2022-09-04T07:08:11.952Z,980.25
2022-09-04T07:09:32.843Z,980.27
2022-09-04T07:10:11.800Z,980.29
2022-09-04T07:11:11.712Z,980.32
2022-09-04T07:12:11.644Z,980.31
2022-09-04T07:13:11.562Z,980.32
2022-09-04T07:14:11.493Z,980.34
2022-09-04T07:15:32.408Z,980.38
2022-09-04T07:16:11.371Z,980.40
2022-09-04T07:17:11.248Z,980.37
2022-09-04T07:18:11.168Z,980.43
2022-09-04T07:19:11.124Z,980.43
2022-09-04T07:20:11.022Z,980.48
2022-09-04T07:21:31.925Z,980.49
2022-09-04T07:22:10.858Z,980.47
2022-09-04T07:23:10.781Z,980.53
2022-09-04T07:24:10.717Z,980.50
2022-09-04T07:25:10.635Z,980.53
2022-09-04T07:26:10.564Z,980.49
2022-09-04T07:27:31.469Z,980.47
2022-09-04T07:28:10.422Z,980.46
2022-09-04T07:29:10.322Z,980.44
2022-09-04T07:30:10.252Z,980.44
2022-09-04T07:31:10.198Z,980.43
2022-09-04T07:32:10.094Z,980.42
2022-09-04T07:33:31.002Z,980.42
2022-09-04T07:34:09.951Z,980.47
2022-09-04T07:35:09.873Z,980.47
2022-09-04T07:36:09.799Z,980.46
2022-09-04T07:37:09.705Z,980.51
2022-09-04T07:38:09.634Z,980.47
2022-09-04T07:39:30.601Z,980.49
2022-09-04T07:40:09.605Z,980.48
2022-09-04T07:41:09.440Z,980.50
2022-09-04T07:42:09.346Z,980.50
2022-09-04T07:43:09.254Z,980.49
2022-09-04T07:44:09.194Z,980.55
2022-09-04T07:45:30.113Z,980.55
2022-09-04T07:46:09.116Z,980.55
2022-09-04T07:47:08.948Z,980.60
2022-09-04T07:48:08.879Z,980.59
2022-09-04T07:49:08.814Z,980.57
2022-09-04T07:50:08.733Z,980.65
2022-09-04T07:51:29.643Z,980.65
2022-09-04T07:52:08.568Z,980.69
2022-09-04T07:53:11.339Z,980.71
2022-09-04T07:54:08.418Z,980.68
2022-09-04T07:55:08.357Z,980.72
2022-09-04T07:56:08.280Z,980.72
2022-09-04T07:57:29.178Z,980.70
2022-09-04T07:58:08.112Z,980.70
2022-09-04T07:59:08.041Z,980.74
2022-09-04T08:00:07.953Z,980.74
2022-09-04T08:01:07.960Z,980.76
2022-09-04T08:02:07.858Z,980.74
2022-09-04T08:03:28.724Z,980.79
2022-09-04T08:04:07.673Z,980.81
2022-09-04T08:05:07.655Z,980.83
2022-09-04T08:06:07.513Z,980.85
2022-09-04T08:07:11.520Z,980.89
2022-09-04T08:08:09.628Z,980.92
2022-09-04T08:09:28.273Z,980.95
2022-09-04T08:10:07.208Z,980.94
2022-09-04T08:11:07.132Z,980.94
2022-09-04T08:12:07.051Z,980.95
2022-09-04T08:13:06.986Z,980.95
2022-09-04T08:14:06.905Z,980.94
2022-09-04T08:15:27.873Z,980.94
2022-09-04T08:16:06.796Z,980.93
2022-09-04T08:17:06.686Z,980.97
2022-09-04T08:18:06.615Z,980.93
2022-09-04T08:19:06.583Z,980.96
2022-09-04T08:20:06.468Z,980.96
2022-09-04T08:21:27.375Z,980.97
2022-09-04T08:22:06.310Z,980.95
2022-09-04T08:23:06.233Z,980.94
2022-09-04T08:24:06.148Z,980.99
2022-09-04T08:25:06.083Z,980.98
2022-09-04T08:26:06.008Z,980.99
2022-09-04T08:27:26.910Z,980.99
2022-09-04T08:28:05.860Z,981.00
2022-09-04T08:29:05.785Z,981.03
2022-09-04T08:30:05.710Z,981.00
2022-09-04T08:31:05.692Z,981.03
2022-09-04T08:32:05.570Z,981.08
2022-09-04T08:33:26.467Z,981.09
2022-09-04T08:34:05.428Z,981.07
2022-09-04T08:35:05.339Z,981.09
2022-09-04T08:36:05.266Z,981.11
2022-09-04T08:37:05.195Z,981.10
2022-09-04T08:38:05.110Z,981.11
2022-09-04T08:39:26.076Z,981.11
2022-09-04T08:40:05.029Z,981.08
2022-09-04T08:41:04.890Z,981.09
2022-09-04T08:42:04.826Z,981.10
2022-09-04T08:43:04.743Z,981.10
2022-09-04T08:44:04.689Z,981.12
2022-09-04T08:45:25.598Z,981.13
2022-09-04T08:46:04.569Z,981.16
2022-09-04T08:47:04.463Z,981.15
2022-09-04T08:48:04.378Z,981.13
2022-09-04T08:49:04.308Z,981.11
2022-09-04T08:50:04.254Z,981.14
2022-09-04T08:51:25.145Z,981.12
2022-09-04T08:52:04.087Z,981.14
2022-09-04T08:53:04.199Z,981.11
2022-09-04T08:54:03.943Z,981.08
2022-09-04T08:55:03.870Z,981.12
2022-09-04T08:56:03.795Z,981.11
2022-09-04T08:57:24.704Z,981.11
2022-09-04T08:58:03.735Z,981.10
2022-09-04T08:59:03.590Z,981.13
2022-09-04T09:00:03.513Z,981.13
2022-09-04T09:01:03.491Z,981.11
2022-09-04T09:02:03.436Z,981.11
2022-09-04T09:03:24.371Z,981.14
2022-09-04T09:04:03.282Z,981.11
2022-09-04T09:05:03.179Z,981.11
2022-09-04T09:06:03.078Z,981.07
2022-09-04T09:07:02.997Z,981.06
2022-09-04T09:08:02.924Z,981.08
2022-09-04T09:09:23.834Z,981.08
2022-09-04T09:10:02.774Z,981.06
2022-09-04T09:11:02.704Z,981.07
2022-09-04T09:12:02.649Z,981.06
2022-09-04T09:13:02.572Z,981.06
2022-09-04T09:14:02.476Z,981.07
2022-09-04T09:15:23.395Z,981.07
2022-09-04T09:16:02.335Z,981.04
2022-09-04T09:17:02.309Z,981.04
2022-09-04T09:18:02.186Z,981.06
2022-09-04T09:19:02.113Z,981.06
2022-09-04T09:20:02.037Z,980.99
2022-09-04T09:21:22.965Z,981.01
2022-09-04T09:22:01.898Z,981.03
2022-09-04T09:23:01.823Z,981.05
2022-09-04T09:24:01.754Z,981.05
2022-09-04T09:25:01.680Z,981.10
2022-09-04T09:26:01.610Z,981.11
2022-09-04T09:27:22.525Z,981.14
2022-09-04T09:28:01.486Z,981.12
2022-09-04T09:29:01.405Z,981.12
2022-09-04T09:30:01.323Z,981.15
2022-09-04T09:31:01.289Z,981.12
2022-09-04T09:32:03.859Z,981.13
2022-09-04T09:33:22.092Z,981.11
2022-09-04T09:34:01.056Z,981.12
2022-09-04T09:35:00.974Z,981.13
2022-09-04T09:36:00.897Z,981.12
2022-09-04T09:37:00.831Z,981.10
2022-09-04T09:38:04.324Z,981.11
2022-09-04T09:39:21.690Z,981.11
2022-09-04T09:40:00.650Z,981.09
2022-09-04T09:41:00.568Z,981.10
2022-09-04T09:42:00.468Z,981.08
2022-09-04T09:43:00.399Z,981.12
2022-09-04T09:44:00.327Z,981.09
2022-09-04T09:45:21.246Z,981.08
2022-09-04T09:46:00.229Z,981.10
2022-09-04T09:47:00.106Z,981.10
2022-09-04T09:48:00.046Z,981.09
2022-09-04T09:48:59.983Z,981.10
2022-09-04T09:49:59.893Z,981.10
2022-09-04T09:51:20.811Z,981.09
2022-09-04T09:51:59.758Z,981.10
2022-09-04T09:52:59.686Z,981.08
2022-09-04T09:53:59.611Z,981.07
2022-09-04T09:54:59.548Z,981.10
2022-09-04T09:55:59.470Z,981.07
2022-09-04T09:57:20.383Z,981.09
2022-09-04T09:57:59.325Z,981.08
2022-09-04T09:58:59.279Z,981.06
2022-09-04T09:59:59.180Z,981.07
2022-09-04T10:00:59.157Z,981.11
2022-09-04T10:01:59.062Z,981.08
2022-09-04T10:03:19.962Z,981.05
2022-09-04T10:03:58.895Z,981.06
2022-09-04T10:04:58.830Z,981.04
2022-09-04T10:05:58.747Z,981.03
2022-09-04T10:06:58.685Z,981.01
2022-09-04T10:07:58.662Z,981.04
2022-09-04T10:09:19.531Z,981.01
2022-09-04T10:09:58.467Z,981.02
2022-09-04T10:10:58.404Z,981.03
2022-09-04T10:11:58.319Z,981.03
2022-09-04T10:12:58.250Z,981.05
2022-09-04T10:13:58.190Z,981.04
2022-09-04T10:15:19.092Z,981.04
2022-09-04T10:15:58.030Z,981.07
2022-09-04T10:16:58.054Z,981.10
2022-09-04T10:17:57.901Z,981.09
2022-09-04T10:18:57.825Z,981.10
2022-09-04T10:19:57.746Z,981.12
2022-09-04T10:21:18.663Z,981.09
2022-09-04T10:21:57.608Z,981.05
2022-09-04T10:22:57.527Z,981.10
2022-09-04T10:23:57.466Z,981.10
2022-09-04T10:24:57.393Z,981.10
2022-09-04T10:25:57.311Z,981.08
2022-09-04T10:27:18.233Z,981.08
2022-09-04T10:27:57.171Z,981.10
2022-09-04T10:28:57.102Z,981.11
2022-09-04T10:29:57.024Z,981.11
2022-09-04T10:30:57.031Z,981.09
2022-09-04T10:31:56.891Z,981.06
2022-09-04T10:33:17.807Z,981.06
2022-09-04T10:33:56.730Z,981.07
2022-09-04T10:34:56.667Z,981.05
2022-09-04T10:35:56.589Z,981.03
2022-09-04T10:36:56.545Z,981.07
2022-09-04T10:37:56.444Z,981.04
2022-09-04T10:39:17.373Z,981.06
2022-09-04T10:39:56.383Z,981.06
2022-09-04T10:40:56.244Z,981.05
2022-09-04T10:41:56.176Z,981.04
2022-09-04T10:42:56.111Z,981.05
2022-09-04T10:43:56.016Z,981.05
2022-09-04T10:45:16.937Z,981.03
2022-09-04T10:45:55.936Z,981.05
2022-09-04T10:46:55.815Z,981.01
2022-09-04T10:47:55.747Z,981.02
2022-09-04T10:48:55.669Z,981.04
2022-09-04T10:49:55.588Z,981.05
2022-09-04T10:51:16.521Z,981.04
2022-09-04T10:51:55.458Z,981.03
2022-09-04T10:52:55.382Z,981.01
2022-09-04T10:53:55.309Z,980.96
2022-09-04T10:54:55.245Z,980.96
2022-09-04T10:55:55.170Z,980.95
2022-09-04T10:57:16.085Z,980.96
2022-09-04T10:57:55.030Z,980.97
2022-09-04T10:58:54.956Z,980.94
2022-09-04T10:59:58.957Z,980.95
2022-09-04T11:00:54.860Z,980.97
2022-09-04T11:01:54.805Z,980.96
2022-09-04T11:03:15.651Z,981.00
2022-09-04T11:03:54.592Z,980.99
2022-09-04T11:04:54.538Z,981.00
2022-09-04T11:05:54.446Z,981.01
2022-09-04T11:06:54.388Z,981.00
2022-09-04T11:07:54.310Z,980.98
2022-09-04T11:09:15.236Z,980.95
2022-09-04T11:09:54.169Z,980.94
2022-09-04T11:10:54.109Z,980.93
2022-09-04T11:11:54.024Z,980.95
2022-09-04T11:12:53.953Z,980.93
2022-09-04T11:13:53.889Z,980.90
2022-09-04T11:15:14.816Z,980.89
2022-09-04T11:15:53.735Z,980.87
2022-09-04T11:16:57.310Z,980.92
2022-09-04T11:17:53.603Z,980.91
2022-09-04T11:18:53.542Z,980.96
2022-09-04T11:19:53.451Z,980.94
2022-09-04T11:21:14.380Z,980.95
2022-09-04T11:21:53.328Z,980.96
2022-09-04T11:22:53.258Z,980.97
2022-09-04T11:23:53.185Z,980.98
2022-09-04T11:24:53.118Z,980.96
2022-09-04T11:25:53.036Z,980.98
2022-09-04T11:27:13.949Z,980.95
2022-09-04T11:27:52.891Z,980.98
2022-09-04T11:28:52.833Z,980.96
2022-09-04T11:29:52.760Z,980.97
2022-09-04T11:30:52.680Z,980.96
2022-09-04T11:31:52.644Z,981.00
2022-09-04T11:33:13.541Z,980.95
2022-09-04T11:33:52.478Z,980.96
2022-09-04T11:34:52.421Z,980.94
2022-09-04T11:35:52.330Z,980.97
2022-09-04T11:36:52.261Z,980.98
2022-09-04T11:37:57.026Z,980.96
2022-09-04T11:39:13.101Z,980.99
2022-09-04T11:39:52.134Z,980.98
2022-09-04T11:40:51.984Z,980.99
2022-09-04T11:41:51.911Z,980.98
2022-09-04T11:42:51.840Z,980.97
2022-09-04T11:43:51.762Z,980.95
2022-09-04T11:45:12.682Z,980.97
2022-09-04T11:45:51.701Z,980.96
2022-09-04T11:46:51.567Z,980.96
2022-09-04T11:47:51.475Z,980.98
2022-09-04T11:48:51.415Z,980.96
2022-09-04T11:49:51.337Z,980.96
2022-09-04T11:51:12.258Z,980.98
2022-09-04T11:51:51.201Z,980.93
2022-09-04T11:52:51.122Z,980.94
2022-09-04T11:53:51.053Z,980.95
2022-09-04T11:54:50.992Z,980.96
2022-09-04T11:55:52.881Z,980.93
2022-09-04T11:57:11.840Z,980.93
2022-09-04T11:57:50.772Z,980.96
2022-09-04T11:58:50.715Z,980.96
2022-09-04T11:59:50.641Z,980.97
2022-09-04T12:00:50.573Z,980.99
2022-09-04T12:01:50.542Z,980.97
2022-09-04T12:03:11.407Z,981.01
2022-09-04T12:03:50.397Z,981.02
2022-09-04T12:04:50.281Z,981.02
2022-09-04T12:05:50.199Z,981.01
2022-09-04T12:06:50.136Z,981.03
2022-09-04T12:07:50.072Z,981.06
2022-09-04T12:09:10.976Z,981.03
2022-09-04T12:09:49.927Z,981.05
2022-09-04T12:10:49.846Z,981.06
2022-09-04T12:11:50.872Z,981.06
2022-09-04T12:12:49.729Z,981.06
2022-09-04T12:13:49.646Z,981.05
2022-09-04T12:15:10.560Z,981.02
2022-09-04T12:15:49.502Z,981.02
2022-09-04T12:16:49.471Z,981.05
2022-09-04T12:17:49.374Z,981.03
2022-09-04T12:18:49.300Z,981.02
2022-09-04T12:19:49.235Z,981.02
2022-09-04T12:21:10.136Z,981.02
2022-09-04T12:21:49.089Z,981.04
2022-09-04T12:22:49.016Z,981.01
2022-09-04T12:23:48.957Z,981.01
2022-09-04T12:24:48.874Z,980.99
2022-09-04T12:25:48.804Z,980.97
2022-09-04T12:27:09.732Z,980.99
2022-09-04T12:27:48.669Z,980.99